GMTN/TTU METAR and TAF weather

Enter ICAO airport designator
Station Type Date Time Source
GMTN METAR 2022/12/04 11:00 UTC NOAA

GMTN 041100Z VRB01KT 6000 -RA SCT016 BKN033 15/12 Q1011 NOSIG


Station Type Date Time Source
GMTN Decoded METAR 2022/12/04 11:00 UTC NOAA

Tetuan / Sania Ramel, Morocco (GMTN) 35-35N 005-20W 10M
Dec 04, 2022 - 06:00 AM EST / 2022.12.04 1100 UTC
Wind: Variable at 1 MPH (1 KT):0
Visibility: 3 mile(s):0
Sky conditions: mostly cloudy
Weather: light rain
Temperature: 59 F (15 C)
Dew Point: 53 F (12 C)
Relative Humidity: 82%
Pressure (altimeter): 29.85 in. Hg (1011 hPa)
ob: GMTN 041100Z VRB01KT 6000 -RA SCT016 BKN033 15/12 Q1011 NOSIG
cycle: 11

Station Type Date Time Source
GMTN TAF 2021/07/02 12:21 UTC NOAA

TAF GMTN 021100Z 0212/0318 09008KT CAVOK
BECMG 0219/0223 26012KT

Example: see airport list